createdAt,value
2023-12-28T00:00:53.000Z,279.96
2023-12-28T00:02:20.000Z,280
2023-12-28T00:04:26.000Z,280.02
2023-12-28T00:05:52.000Z,280
2023-12-28T00:07:58.000Z,279.96
2023-12-28T00:09:26.000Z,279.99
2023-12-28T00:11:32.000Z,279.98
2023-12-28T00:12:58.000Z,279.96
2023-12-28T00:15:05.000Z,279.98
2023-12-28T00:16:32.000Z,280.06
2023-12-28T00:18:38.000Z,280.09
2023-12-28T00:20:05.000Z,280.09
2023-12-28T00:22:12.000Z,280.07
2023-12-28T00:23:38.000Z,280.14
2023-12-28T00:25:45.000Z,280.18
2023-12-28T00:27:11.000Z,280.18
2023-12-28T00:29:18.000Z,280.17
2023-12-28T00:30:44.000Z,280.2
2023-12-28T00:32:51.000Z,280.18
2023-12-28T00:34:17.000Z,280.21
2023-12-28T00:36:24.000Z,280.23
2023-12-28T00:39:09.000Z,280.23
2023-12-28T00:40:36.000Z,280.23
2023-12-28T00:42:42.000Z,280.24
2023-12-28T00:44:09.000Z,280.28
2023-12-28T00:46:15.000Z,280.3
2023-12-28T00:47:42.000Z,280.35
2023-12-28T00:49:48.000Z,280.35
2023-12-28T00:51:15.000Z,280.38
2023-12-28T00:53:21.000Z,280.4
2023-12-28T00:54:47.000Z,280.43
2023-12-28T00:56:54.000Z,280.42
2023-12-28T00:58:20.000Z,280.43
2023-12-28T01:00:26.000Z,280.43
2023-12-28T01:01:53.000Z,280.42
2023-12-28T01:03:59.000Z,280.4
2023-12-28T01:05:26.000Z,280.34
2023-12-28T01:07:32.000Z,280.3
2023-12-28T01:08:58.000Z,280.31
2023-12-28T01:11:04.000Z,280.31
2023-12-28T01:12:31.000Z,280.31
2023-12-28T01:14:38.000Z,280.37
2023-12-28T01:17:23.000Z,280.42
2023-12-28T01:18:50.000Z,280.45
2023-12-28T01:20:56.000Z,280.46
2023-12-28T01:22:23.000Z,280.4
2023-12-28T01:24:29.000Z,280.42
2023-12-28T01:25:56.000Z,280.43
2023-12-28T01:28:02.000Z,280.4
2023-12-28T01:29:29.000Z,280.42
2023-12-28T01:31:35.000Z,280.38
2023-12-28T01:33:02.000Z,280.34
2023-12-28T01:35:08.000Z,280.3
2023-12-28T01:36:34.000Z,280.24
2023-12-28T01:38:41.000Z,280.17
2023-12-28T01:40:07.000Z,280.1
2023-12-28T01:42:13.000Z,280.09
2023-12-28T01:43:40.000Z,280.06
2023-12-28T01:45:46.000Z,280.02
2023-12-28T01:47:13.000Z,280.06
2023-12-28T01:49:19.000Z,280.05
2023-12-28T01:50:45.000Z,279.99
2023-12-28T01:52:52.000Z,279.95
2023-12-28T01:55:37.000Z,279.96
2023-12-28T01:57:04.000Z,279.96
2023-12-28T01:59:10.000Z,280
2023-12-28T02:00:37.000Z,280.06
2023-12-28T02:02:43.000Z,280.14
2023-12-28T02:04:09.000Z,280.18
2023-12-28T02:06:16.000Z,280.18
2023-12-28T02:07:43.000Z,280.27
2023-12-28T02:09:50.000Z,280.28
2023-12-28T02:11:16.000Z,280.31
2023-12-28T02:13:22.000Z,280.35
2023-12-28T02:14:49.000Z,280.37
2023-12-28T02:16:55.000Z,280.45
2023-12-28T02:18:22.000Z,280.4
2023-12-28T02:20:28.000Z,280.47
2023-12-28T02:21:55.000Z,280.54
2023-12-28T02:24:01.000Z,280.57
2023-12-28T02:25:27.000Z,280.64
2023-12-28T02:27:34.000Z,280.66
2023-12-28T02:29:00.000Z,280.66
2023-12-28T02:31:06.000Z,280.65
2023-12-28T02:33:52.000Z,280.65
2023-12-28T02:35:18.000Z,280.62
2023-12-28T02:37:24.000Z,280.65
2023-12-28T02:38:51.000Z,280.61
2023-12-28T02:40:57.000Z,280.56
2023-12-28T02:42:23.000Z,280.45
2023-12-28T02:44:30.000Z,280.38
2023-12-28T02:45:57.000Z,280.32
2023-12-28T02:48:03.000Z,280.27
2023-12-28T02:49:31.000Z,280.21
2023-12-28T02:51:37.000Z,280.17
2023-12-28T02:53:03.000Z,280.12
2023-12-28T02:55:09.000Z,280.1
2023-12-28T02:56:36.000Z,280.05
2023-12-28T02:58:42.000Z,280.05
2023-12-28T03:00:09.000Z,280.06
2023-12-28T03:02:15.000Z,280.03
2023-12-28T03:03:41.000Z,279.99
2023-12-28T03:05:48.000Z,279.99
2023-12-28T03:07:14.000Z,279.99
2023-12-28T03:09:20.000Z,280
2023-12-28T03:12:05.000Z,279.98
2023-12-28T03:13:32.000Z,279.95
2023-12-28T03:15:38.000Z,279.95
2023-12-28T03:17:05.000Z,279.96
2023-12-28T03:19:11.000Z,279.96
2023-12-28T03:20:38.000Z,279.93
2023-12-28T03:22:44.000Z,279.93
2023-12-28T03:24:10.000Z,279.92
2023-12-28T03:26:16.000Z,279.93
2023-12-28T03:27:43.000Z,279.89
2023-12-28T03:29:49.000Z,279.89
2023-12-28T03:31:16.000Z,279.88
2023-12-28T03:33:22.000Z,279.86
2023-12-28T03:34:49.000Z,279.85
2023-12-28T03:36:55.000Z,279.82
2023-12-28T03:38:21.000Z,279.8
2023-12-28T03:40:27.000Z,279.8
2023-12-28T03:41:54.000Z,279.8
2023-12-28T03:44:00.000Z,279.76
2023-12-28T03:45:26.000Z,279.74
2023-12-28T03:47:33.000Z,279.74
2023-12-28T03:50:18.000Z,279.7
2023-12-28T03:51:44.000Z,279.7
2023-12-28T03:53:51.000Z,279.69
2023-12-28T03:55:17.000Z,279.66
2023-12-28T03:57:23.000Z,279.65
2023-12-28T03:58:50.000Z,279.62
2023-12-28T04:00:56.000Z,279.59
2023-12-28T04:02:22.000Z,279.58
2023-12-28T04:04:29.000Z,279.56
2023-12-28T04:05:55.000Z,279.56
2023-12-28T04:08:01.000Z,279.55
2023-12-28T04:09:28.000Z,279.52
2023-12-28T04:11:35.000Z,279.51
2023-12-28T04:13:01.000Z,279.48
2023-12-28T04:15:07.000Z,279.47
2023-12-28T04:16:34.000Z,279.44
2023-12-28T04:18:41.000Z,279.42
2023-12-28T04:20:07.000Z,279.41
2023-12-28T04:22:14.000Z,279.41
2023-12-28T04:23:40.000Z,279.42
2023-12-28T04:25:46.000Z,279.42
2023-12-28T04:28:31.000Z,279.41
2023-12-28T04:29:58.000Z,279.42
2023-12-28T04:32:04.000Z,279.44
2023-12-28T04:33:30.000Z,279.44
2023-12-28T04:35:37.000Z,279.47
2023-12-28T04:37:03.000Z,279.49
2023-12-28T04:39:09.000Z,279.49
2023-12-28T04:40:36.000Z,279.54
2023-12-28T04:42:42.000Z,279.55
2023-12-28T04:44:09.000Z,279.58
2023-12-28T04:46:15.000Z,279.59
2023-12-28T04:47:41.000Z,279.58
2023-12-28T04:49:48.000Z,279.63
2023-12-28T04:51:15.000Z,279.65
2023-12-28T04:53:21.000Z,279.65
2023-12-28T04:54:47.000Z,279.66
2023-12-28T04:56:54.000Z,279.66
2023-12-28T04:58:21.000Z,279.66
2023-12-28T05:00:27.000Z,279.69
2023-12-28T05:01:53.000Z,279.69
2023-12-28T05:04:00.000Z,279.69
2023-12-28T05:06:45.000Z,279.73
2023-12-28T05:08:12.000Z,279.76
2023-12-28T05:10:18.000Z,279.77
2023-12-28T05:11:45.000Z,279.82
2023-12-28T05:13:51.000Z,279.82
2023-12-28T05:15:17.000Z,279.82
2023-12-28T05:17:23.000Z,279.82
2023-12-28T05:18:50.000Z,279.81
2023-12-28T05:20:57.000Z,279.84
2023-12-28T05:22:23.000Z,279.82
2023-12-28T05:24:29.000Z,279.84
2023-12-28T05:25:56.000Z,279.85
2023-12-28T05:28:02.000Z,279.86
2023-12-28T05:29:29.000Z,279.88
2023-12-28T05:31:35.000Z,279.88
2023-12-28T05:33:02.000Z,279.88
2023-12-28T05:35:09.000Z,279.86
2023-12-28T05:36:35.000Z,279.93
2023-12-28T05:38:41.000Z,279.92
2023-12-28T05:40:08.000Z,279.91
2023-12-28T05:42:14.000Z,279.89
2023-12-28T05:44:59.000Z,279.89
2023-12-28T05:46:26.000Z,279.88
2023-12-28T05:48:32.000Z,279.85
2023-12-28T05:49:58.000Z,279.84
2023-12-28T05:52:05.000Z,279.86
2023-12-28T05:53:31.000Z,279.89
2023-12-28T05:55:37.000Z,279.86
2023-12-28T05:57:04.000Z,279.85
2023-12-28T05:59:10.000Z,279.85
2023-12-28T06:00:37.000Z,279.82
2023-12-28T06:02:43.000Z,279.82
2023-12-28T06:04:09.000Z,279.82
2023-12-28T06:06:16.000Z,279.82
2023-12-28T06:07:42.000Z,279.81
2023-12-28T06:09:49.000Z,279.8
2023-12-28T06:11:15.000Z,279.77
2023-12-28T06:13:22.000Z,279.74
2023-12-28T06:14:48.000Z,279.74
2023-12-28T06:16:54.000Z,279.81
2023-12-28T06:18:21.000Z,279.8
2023-12-28T06:20:27.000Z,279.76
2023-12-28T06:23:13.000Z,279.73
2023-12-28T06:24:39.000Z,279.74
2023-12-28T06:26:45.000Z,279.74
2023-12-28T06:28:12.000Z,279.74
2023-12-28T06:30:19.000Z,279.74
2023-12-28T06:31:45.000Z,279.74
2023-12-28T06:33:51.000Z,279.76
2023-12-28T06:35:18.000Z,279.74
2023-12-28T06:37:24.000Z,279.73
2023-12-28T06:38:51.000Z,279.73
2023-12-28T06:40:57.000Z,279.76
2023-12-28T06:42:24.000Z,279.74
2023-12-28T06:44:30.000Z,279.74
2023-12-28T06:45:57.000Z,279.77
2023-12-28T06:48:03.000Z,279.74
2023-12-28T06:49:30.000Z,279.74
2023-12-28T06:51:36.000Z,279.74
2023-12-28T06:53:03.000Z,279.74
2023-12-28T06:55:09.000Z,279.74
2023-12-28T06:56:36.000Z,279.73
2023-12-28T06:58:42.000Z,279.73
2023-12-28T07:01:27.000Z,279.76
2023-12-28T07:02:54.000Z,279.74
2023-12-28T07:05:00.000Z,279.76
2023-12-28T07:06:27.000Z,279.81
2023-12-28T07:08:33.000Z,279.84
2023-12-28T07:10:03.000Z,279.82
2023-12-28T07:12:09.000Z,279.81
2023-12-28T07:13:35.000Z,279.81
2023-12-28T07:15:42.000Z,279.84
2023-12-28T07:17:09.000Z,279.82
2023-12-28T07:19:15.000Z,279.92
2023-12-28T07:20:41.000Z,279.92
2023-12-28T07:22:48.000Z,279.92
2023-12-28T07:24:14.000Z,279.93
2023-12-28T07:26:21.000Z,279.98
2023-12-28T07:27:47.000Z,279.99
2023-12-28T07:29:53.000Z,280
2023-12-28T07:31:20.000Z,280
2023-12-28T07:33:26.000Z,280.03
2023-12-28T07:34:53.000Z,280.06
2023-12-28T07:36:59.000Z,280.07
2023-12-28T07:39:45.000Z,280.12
2023-12-28T07:41:11.000Z,280.14
2023-12-28T07:43:17.000Z,280.16
2023-12-28T07:44:44.000Z,280.17
2023-12-28T07:46:51.000Z,280.18
2023-12-28T07:48:17.000Z,280.2
2023-12-28T07:50:24.000Z,280.18
2023-12-28T07:51:50.000Z,280.21
2023-12-28T07:53:57.000Z,280.21
2023-12-28T07:55:23.000Z,280.24
2023-12-28T07:57:29.000Z,280.28
2023-12-28T07:58:56.000Z,280.32
2023-12-28T08:01:02.000Z,280.32
2023-12-28T08:02:29.000Z,280.31
2023-12-28T08:04:35.000Z,280.32
2023-12-28T08:06:02.000Z,280.32
2023-12-28T08:08:08.000Z,280.34
2023-12-28T08:09:35.000Z,280.34
2023-12-28T08:11:41.000Z,280.32
2023-12-28T08:13:07.000Z,280.34
2023-12-28T08:15:14.000Z,280.34
2023-12-28T08:17:59.000Z,280.31
2023-12-28T08:19:26.000Z,280.32
2023-12-28T08:21:33.000Z,280.34
2023-12-28T08:22:59.000Z,280.38
2023-12-28T08:25:23.000Z,280.4
2023-12-28T08:26:49.000Z,280.4
2023-12-28T08:28:56.000Z,280.43
2023-12-28T08:30:22.000Z,280.45
2023-12-28T08:32:28.000Z,280.49
2023-12-28T08:33:55.000Z,280.49
2023-12-28T08:36:02.000Z,280.49
2023-12-28T08:37:28.000Z,280.47
2023-12-28T08:39:35.000Z,280.47
2023-12-28T08:41:01.000Z,280.49
2023-12-28T08:43:07.000Z,280.5
2023-12-28T08:44:34.000Z,280.53
2023-12-28T08:46:40.000Z,280.56
2023-12-28T08:48:07.000Z,280.59
2023-12-28T08:50:13.000Z,280.61
2023-12-28T08:51:39.000Z,280.59
2023-12-28T08:53:50.000Z,280.62
2023-12-28T08:56:35.000Z,280.66
2023-12-28T08:58:02.000Z,280.68
2023-12-28T09:00:09.000Z,280.66
2023-12-28T09:01:35.000Z,280.64
2023-12-28T09:03:42.000Z,280.64
2023-12-28T09:05:08.000Z,280.65
2023-12-28T09:07:15.000Z,280.65
2023-12-28T09:08:41.000Z,280.72
2023-12-28T09:10:47.000Z,280.73
2023-12-28T09:12:14.000Z,280.71
2023-12-28T09:14:21.000Z,280.68
2023-12-28T09:15:47.000Z,280.69
2023-12-28T09:17:53.000Z,280.69
2023-12-28T09:19:20.000Z,280.72
2023-12-28T09:21:27.000Z,280.73
2023-12-28T09:22:53.000Z,280.72
2023-12-28T09:25:00.000Z,280.72
2023-12-28T09:26:26.000Z,280.75
2023-12-28T09:28:33.000Z,280.8
2023-12-28T09:29:59.000Z,280.8
2023-12-28T09:32:06.000Z,280.79
2023-12-28T09:34:51.000Z,280.8
2023-12-28T09:36:18.000Z,280.83
2023-12-28T09:38:24.000Z,280.83
2023-12-28T09:39:50.000Z,280.86
2023-12-28T09:41:57.000Z,280.89
2023-12-28T09:43:23.000Z,280.93
2023-12-28T09:45:29.000Z,280.94
2023-12-28T09:46:56.000Z,280.98
2023-12-28T09:49:02.000Z,281.01
2023-12-28T09:50:29.000Z,281.04
2023-12-28T09:52:35.000Z,281.03
2023-12-28T09:54:02.000Z,281.03
2023-12-28T09:56:08.000Z,281.05
2023-12-28T09:57:35.000Z,281.11
2023-12-28T09:59:41.000Z,281.12
2023-12-28T10:01:07.000Z,281.1
2023-12-28T10:03:14.000Z,281.12
2023-12-28T10:04:40.000Z,281.15
2023-12-28T10:06:47.000Z,281.16
2023-12-28T10:08:13.000Z,281.18
2023-12-28T10:10:19.000Z,281.18
2023-12-28T10:13:05.000Z,281.18
2023-12-28T10:14:31.000Z,281.22
2023-12-28T10:16:38.000Z,281.25
2023-12-28T10:18:04.000Z,281.25
2023-12-28T10:20:11.000Z,281.28
2023-12-28T10:21:37.000Z,281.3
2023-12-28T10:23:43.000Z,281.29
2023-12-28T10:25:10.000Z,281.29
2023-12-28T10:27:16.000Z,281.3
2023-12-28T10:28:43.000Z,281.29
2023-12-28T10:30:49.000Z,281.3
2023-12-28T10:32:16.000Z,281.32
2023-12-28T10:34:23.000Z,281.32
2023-12-28T10:35:50.000Z,281.35
2023-12-28T10:37:57.000Z,281.37
2023-12-28T10:39:23.000Z,281.39
2023-12-28T10:41:29.000Z,281.42
2023-12-28T10:42:56.000Z,281.45
2023-12-28T10:45:02.000Z,281.49
2023-12-28T10:46:29.000Z,281.52
2023-12-28T10:48:35.000Z,281.48
2023-12-28T10:51:20.000Z,281.43
2023-12-28T10:52:47.000Z,281.4
2023-12-28T10:54:53.000Z,281.37
2023-12-28T10:56:20.000Z,281.37
2023-12-28T10:58:26.000Z,281.37
2023-12-28T10:59:53.000Z,281.37
2023-12-28T11:01:59.000Z,281.37
2023-12-28T11:03:26.000Z,281.42
2023-12-28T11:05:32.000Z,281.45
2023-12-28T11:06:59.000Z,281.45
2023-12-28T11:09:05.000Z,281.43
2023-12-28T11:10:35.000Z,281.42
2023-12-28T11:12:41.000Z,281.43
2023-12-28T11:14:08.000Z,281.48
2023-12-28T11:16:14.000Z,281.47
2023-12-28T11:17:41.000Z,281.47
2023-12-28T11:19:47.000Z,281.45
2023-12-28T11:21:13.000Z,281.45
2023-12-28T11:23:19.000Z,281.47
2023-12-28T11:24:46.000Z,281.47
2023-12-28T11:26:52.000Z,281.48
2023-12-28T11:29:37.000Z,281.48
2023-12-28T11:31:04.000Z,281.48
2023-12-28T11:33:10.000Z,281.47
2023-12-28T11:34:37.000Z,281.47
2023-12-28T11:36:43.000Z,281.45
2023-12-28T11:38:10.000Z,281.49
2023-12-28T11:40:16.000Z,281.54
2023-12-28T11:41:43.000Z,281.55
2023-12-28T11:43:49.000Z,281.56
2023-12-28T11:45:15.000Z,281.52
2023-12-28T11:47:21.000Z,281.49
2023-12-28T11:48:48.000Z,281.48
2023-12-28T11:50:54.000Z,281.47
2023-12-28T11:52:21.000Z,281.48
2023-12-28T11:54:27.000Z,281.52
2023-12-28T11:55:54.000Z,281.49
2023-12-28T11:58:01.000Z,281.47
2023-12-28T11:59:27.000Z,281.45
2023-12-28T12:01:34.000Z,281.43
2023-12-28T12:03:00.000Z,281.43
2023-12-28T12:05:07.000Z,281.45
2023-12-28T12:07:53.000Z,281.37
2023-12-28T12:09:19.000Z,281.37
2023-12-28T12:11:26.000Z,281.39
2023-12-28T12:12:52.000Z,281.39
2023-12-28T12:14:58.000Z,281.37
2023-12-28T12:16:25.000Z,281.4
2023-12-28T12:18:31.000Z,281.43
2023-12-28T12:19:57.000Z,281.47
2023-12-28T12:22:04.000Z,281.47
2023-12-28T12:23:31.000Z,281.47
2023-12-28T12:25:37.000Z,281.47
2023-12-28T12:27:04.000Z,281.48
2023-12-28T12:29:10.000Z,281.45
2023-12-28T12:30:36.000Z,281.47
2023-12-28T12:32:43.000Z,281.43
2023-12-28T12:34:09.000Z,281.45
2023-12-28T12:36:16.000Z,281.45
2023-12-28T12:37:42.000Z,281.45
2023-12-28T12:39:48.000Z,281.49
2023-12-28T12:41:15.000Z,281.48
2023-12-28T12:43:21.000Z,281.45
2023-12-28T12:46:06.000Z,281.43
2023-12-28T12:47:33.000Z,281.4
2023-12-28T12:49:39.000Z,281.42
2023-12-28T12:51:06.000Z,281.45
2023-12-28T12:53:12.000Z,281.42
2023-12-28T12:54:39.000Z,281.45
2023-12-28T12:56:45.000Z,281.51
2023-12-28T12:58:12.000Z,281.52
2023-12-28T13:00:18.000Z,281.54
2023-12-28T13:01:44.000Z,281.55
2023-12-28T13:03:51.000Z,281.58
2023-12-28T13:05:18.000Z,281.56
2023-12-28T13:07:24.000Z,281.58
2023-12-28T13:08:51.000Z,281.56
2023-12-28T13:10:57.000Z,281.55
2023-12-28T13:12:23.000Z,281.58
2023-12-28T13:14:30.000Z,281.59
2023-12-28T13:15:56.000Z,281.56
2023-12-28T13:18:03.000Z,281.54
2023-12-28T13:19:30.000Z,281.58
2023-12-28T13:21:36.000Z,281.56
2023-12-28T13:24:22.000Z,281.55
2023-12-28T13:25:48.000Z,281.52
2023-12-28T13:27:55.000Z,281.51
2023-12-28T13:29:21.000Z,281.45
2023-12-28T13:31:28.000Z,281.43
2023-12-28T13:32:54.000Z,281.42
2023-12-28T13:35:01.000Z,281.42
2023-12-28T13:36:30.000Z,281.4
2023-12-28T13:38:37.000Z,281.4
2023-12-28T13:40:04.000Z,281.37
2023-12-28T13:42:10.000Z,281.37
2023-12-28T13:43:37.000Z,281.39
2023-12-28T13:45:43.000Z,281.39
2023-12-28T13:47:09.000Z,281.35
2023-12-28T13:49:15.000Z,281.32
2023-12-28T13:50:42.000Z,281.29
2023-12-28T13:52:48.000Z,281.3
2023-12-28T13:54:15.000Z,281.29
2023-12-28T13:56:21.000Z,281.3
2023-12-28T13:57:48.000Z,281.29
2023-12-28T13:59:54.000Z,281.26
2023-12-28T14:02:42.000Z,281.25
2023-12-28T14:04:09.000Z,281.28
2023-12-28T14:06:15.000Z,281.29
2023-12-28T14:07:42.000Z,281.3
2023-12-28T14:09:48.000Z,281.3
2023-12-28T14:11:14.000Z,281.29
2023-12-28T14:13:21.000Z,281.36
2023-12-28T14:14:47.000Z,281.36
2023-12-28T14:16:53.000Z,281.39
2023-12-28T14:18:20.000Z,281.42
2023-12-28T14:20:26.000Z,281.4
2023-12-28T14:21:53.000Z,281.4
2023-12-28T14:23:59.000Z,281.4
2023-12-28T14:25:26.000Z,281.39
2023-12-28T14:27:32.000Z,281.35
2023-12-28T14:28:59.000Z,281.35
2023-12-28T14:31:05.000Z,281.33
2023-12-28T14:32:32.000Z,281.33
2023-12-28T14:34:38.000Z,281.36
2023-12-28T14:36:05.000Z,281.39
2023-12-28T14:38:11.000Z,281.4
2023-12-28T14:40:56.000Z,281.42
2023-12-28T14:42:23.000Z,281.4
2023-12-28T14:44:29.000Z,281.39
2023-12-28T14:45:56.000Z,281.37
2023-12-28T14:48:02.000Z,281.35
2023-12-28T14:49:29.000Z,281.32
2023-12-28T14:51:35.000Z,281.3
2023-12-28T14:53:02.000Z,281.28
2023-12-28T14:55:08.000Z,281.28
2023-12-28T14:56:35.000Z,281.26
2023-12-28T14:58:54.000Z,281.25
2023-12-28T15:00:21.000Z,281.22
2023-12-28T15:02:27.000Z,281.19
2023-12-28T15:03:54.000Z,281.14
2023-12-28T15:06:00.000Z,281.08
2023-12-28T15:07:27.000Z,281.04
2023-12-28T15:09:33.000Z,281.03
2023-12-28T15:10:59.000Z,281.08
2023-12-28T15:13:05.000Z,281.1
2023-12-28T15:14:32.000Z,281.05
2023-12-28T15:16:38.000Z,281.04
2023-12-28T15:19:23.000Z,281.05
2023-12-28T15:20:50.000Z,281.08
2023-12-28T15:22:56.000Z,281.11
2023-12-28T15:24:22.000Z,281.08
2023-12-28T15:26:29.000Z,281.05
2023-12-28T15:27:55.000Z,281.04
2023-12-28T15:30:01.000Z,281.05
2023-12-28T15:31:28.000Z,281.03
2023-12-28T15:33:34.000Z,281.03
2023-12-28T15:35:01.000Z,281.03
2023-12-28T15:37:12.000Z,281.01
2023-12-28T15:38:39.000Z,281
2023-12-28T15:40:46.000Z,280.96
2023-12-28T15:42:12.000Z,280.96
2023-12-28T15:44:19.000Z,280.97
2023-12-28T15:45:45.000Z,280.96
2023-12-28T15:47:51.000Z,280.93
2023-12-28T15:49:18.000Z,280.9
2023-12-28T15:51:24.000Z,280.96
2023-12-28T15:52:51.000Z,280.96
2023-12-28T15:54:57.000Z,280.91
2023-12-28T15:57:42.000Z,280.9
2023-12-28T15:59:09.000Z,280.86
2023-12-28T16:01:15.000Z,280.87
2023-12-28T16:02:42.000Z,280.83
2023-12-28T16:04:48.000Z,280.87
2023-12-28T16:06:15.000Z,280.89
2023-12-28T16:08:21.000Z,280.93
2023-12-28T16:09:47.000Z,280.97
2023-12-28T16:11:54.000Z,280.97
2023-12-28T16:13:20.000Z,280.98
2023-12-28T16:15:26.000Z,280.94
2023-12-28T16:16:53.000Z,280.91
2023-12-28T16:18:59.000Z,280.93
2023-12-28T16:20:26.000Z,280.93
2023-12-28T16:22:32.000Z,280.93
2023-12-28T16:23:58.000Z,280.9
2023-12-28T16:26:05.000Z,280.86
2023-12-28T16:27:31.000Z,280.93
2023-12-28T16:29:37.000Z,280.93
2023-12-28T16:31:04.000Z,280.94
2023-12-28T16:33:10.000Z,280.98
2023-12-28T16:35:55.000Z,280.97
2023-12-28T16:37:22.000Z,280.96
2023-12-28T16:39:28.000Z,281.04
2023-12-28T16:40:55.000Z,281.05
2023-12-28T16:43:01.000Z,281.05
2023-12-28T16:44:28.000Z,281.03
2023-12-28T16:46:35.000Z,281.1
2023-12-28T16:48:01.000Z,281.12
2023-12-28T16:50:09.000Z,281.14
2023-12-28T16:51:35.000Z,281.14
2023-12-28T16:53:42.000Z,281.1
2023-12-28T16:55:08.000Z,281.08
2023-12-28T16:57:15.000Z,281.07
2023-12-28T16:58:41.000Z,281.01
2023-12-28T17:00:48.000Z,281
2023-12-28T17:02:14.000Z,280.98
2023-12-28T17:04:20.000Z,280.93
2023-12-28T17:05:47.000Z,280.9
2023-12-28T17:07:55.000Z,280.87
2023-12-28T17:09:21.000Z,280.84
2023-12-28T17:11:28.000Z,280.8
2023-12-28T17:14:13.000Z,280.8
2023-12-28T17:15:40.000Z,280.82
2023-12-28T17:17:46.000Z,280.83
2023-12-28T17:19:12.000Z,280.79
2023-12-28T17:21:19.000Z,280.78
2023-12-28T17:22:45.000Z,280.76
2023-12-28T17:24:51.000Z,280.76
2023-12-28T17:26:18.000Z,280.78
2023-12-28T17:28:24.000Z,280.82
2023-12-28T17:29:51.000Z,280.82
2023-12-28T17:31:57.000Z,280.8
2023-12-28T17:33:24.000Z,280.83
2023-12-28T17:35:30.000Z,280.84
2023-12-28T17:36:57.000Z,280.89
2023-12-28T17:39:03.000Z,280.87
2023-12-28T17:40:30.000Z,280.87
2023-12-28T17:42:36.000Z,280.9
2023-12-28T17:44:03.000Z,280.89
2023-12-28T17:46:10.000Z,280.87
2023-12-28T17:47:36.000Z,280.84
2023-12-28T17:49:43.000Z,280.83
2023-12-28T17:52:28.000Z,280.89
2023-12-28T17:53:55.000Z,280.87
2023-12-28T17:56:01.000Z,280.87
2023-12-28T17:57:28.000Z,280.84
2023-12-28T17:59:34.000Z,280.8
2023-12-28T18:01:00.000Z,280.8
2023-12-28T18:03:07.000Z,280.8
2023-12-28T18:04:33.000Z,280.82
2023-12-28T18:06:40.000Z,280.8
2023-12-28T18:08:06.000Z,280.8
2023-12-28T18:10:12.000Z,280.82
2023-12-28T18:11:39.000Z,280.8
2023-12-28T18:13:45.000Z,280.8
2023-12-28T18:15:12.000Z,280.78
2023-12-28T18:17:18.000Z,280.76
2023-12-28T18:18:45.000Z,280.75
2023-12-28T18:20:51.000Z,280.73
2023-12-28T18:22:18.000Z,280.69
2023-12-28T18:24:24.000Z,280.71
2023-12-28T18:25:50.000Z,280.68
2023-12-28T18:27:56.000Z,280.69
2023-12-28T18:30:42.000Z,280.75
2023-12-28T18:32:09.000Z,280.72
2023-12-28T18:34:15.000Z,280.73
2023-12-28T18:35:41.000Z,280.76
2023-12-28T18:37:48.000Z,280.8
2023-12-28T18:39:14.000Z,280.8
2023-12-28T18:41:20.000Z,280.83
2023-12-28T18:42:47.000Z,280.84
2023-12-28T18:44:53.000Z,280.83
2023-12-28T18:46:20.000Z,280.82
2023-12-28T18:48:26.000Z,280.84
2023-12-28T18:49:52.000Z,280.8
2023-12-28T18:51:59.000Z,280.8
2023-12-28T18:53:25.000Z,280.78
2023-12-28T18:55:32.000Z,280.75
2023-12-28T18:56:58.000Z,280.73
2023-12-28T18:59:04.000Z,280.72
2023-12-28T19:00:31.000Z,280.69
2023-12-28T19:02:37.000Z,280.68
2023-12-28T19:04:04.000Z,280.66
2023-12-28T19:06:10.000Z,280.71
2023-12-28T19:08:56.000Z,280.72
2023-12-28T19:10:23.000Z,280.73
2023-12-28T19:12:29.000Z,280.73
2023-12-28T19:13:56.000Z,280.73
2023-12-28T19:16:02.000Z,280.71
2023-12-28T19:17:29.000Z,280.73
2023-12-28T19:19:35.000Z,280.71
2023-12-28T19:21:02.000Z,280.73
2023-12-28T19:23:08.000Z,280.76
2023-12-28T19:24:35.000Z,280.78
2023-12-28T19:26:41.000Z,280.76
2023-12-28T19:28:08.000Z,280.76
2023-12-28T19:30:14.000Z,280.75
2023-12-28T19:31:41.000Z,280.72
2023-12-28T19:33:48.000Z,280.69
2023-12-28T19:35:15.000Z,280.68
2023-12-28T19:37:23.000Z,280.71
2023-12-28T19:38:49.000Z,280.71
2023-12-28T19:40:56.000Z,280.68
2023-12-28T19:42:22.000Z,280.69
2023-12-28T19:44:28.000Z,280.66
2023-12-28T19:47:13.000Z,280.66
2023-12-28T19:48:40.000Z,280.65
2023-12-28T19:50:46.000Z,280.72
2023-12-28T19:52:12.000Z,280.76
2023-12-28T19:54:19.000Z,280.8
2023-12-28T19:55:45.000Z,280.8
2023-12-28T19:57:51.000Z,280.82
2023-12-28T19:59:18.000Z,280.84
2023-12-28T20:01:24.000Z,280.83
2023-12-28T20:02:50.000Z,280.8
2023-12-28T20:04:57.000Z,280.84
2023-12-28T20:06:23.000Z,280.83
2023-12-28T20:08:30.000Z,280.8
2023-12-28T20:09:56.000Z,280.8
2023-12-28T20:12:03.000Z,280.82
2023-12-28T20:13:29.000Z,280.8
2023-12-28T20:15:35.000Z,280.8
2023-12-28T20:17:02.000Z,280.79
2023-12-28T20:19:08.000Z,280.78
2023-12-28T20:20:35.000Z,280.82
2023-12-28T20:22:41.000Z,280.8
2023-12-28T20:25:26.000Z,280.87
2023-12-28T20:26:53.000Z,280.84
2023-12-28T20:28:59.000Z,280.84
2023-12-28T20:30:25.000Z,280.83
2023-12-28T20:32:31.000Z,280.79
2023-12-28T20:33:58.000Z,280.8
2023-12-28T20:36:05.000Z,280.78
2023-12-28T20:37:31.000Z,280.78
2023-12-28T20:39:37.000Z,280.75
2023-12-28T20:41:04.000Z,280.76
2023-12-28T20:43:10.000Z,280.75
2023-12-28T20:44:37.000Z,280.78
2023-12-28T20:46:43.000Z,280.76
2023-12-28T20:48:09.000Z,280.75
2023-12-28T20:50:16.000Z,280.73
2023-12-28T20:51:42.000Z,280.71
2023-12-28T20:53:48.000Z,280.65
2023-12-28T20:55:15.000Z,280.61
2023-12-28T20:57:21.000Z,280.57
2023-12-28T20:58:48.000Z,280.54
2023-12-28T21:00:54.000Z,280.54
2023-12-28T21:03:39.000Z,280.53
2023-12-28T21:05:06.000Z,280.56
2023-12-28T21:07:12.000Z,280.54
2023-12-28T21:08:39.000Z,280.57
2023-12-28T21:10:45.000Z,280.64
2023-12-28T21:12:16.000Z,280.64
2023-12-28T21:14:22.000Z,280.65
2023-12-28T21:15:49.000Z,280.62
2023-12-28T21:17:55.000Z,280.59
2023-12-28T21:19:23.000Z,280.56
2023-12-28T21:21:30.000Z,280.56
2023-12-28T21:22:57.000Z,280.5
2023-12-28T21:25:03.000Z,280.47
2023-12-28T21:26:30.000Z,280.45
2023-12-28T21:28:36.000Z,280.51
2023-12-28T21:30:02.000Z,280.54
2023-12-28T21:32:08.000Z,280.56
2023-12-28T21:33:35.000Z,280.57
2023-12-28T21:35:42.000Z,280.53
2023-12-28T21:37:08.000Z,280.49
2023-12-28T21:39:15.000Z,280.49
2023-12-28T21:42:00.000Z,280.5
2023-12-28T21:43:27.000Z,280.57
2023-12-28T21:45:33.000Z,280.57
2023-12-28T21:46:59.000Z,280.59
2023-12-28T21:49:06.000Z,280.57
2023-12-28T21:50:33.000Z,280.59
2023-12-28T21:52:39.000Z,280.64
2023-12-28T21:54:05.000Z,280.68
2023-12-28T21:56:11.000Z,280.68
2023-12-28T21:57:38.000Z,280.71
2023-12-28T21:59:44.000Z,280.69
2023-12-28T22:01:11.000Z,280.68
2023-12-28T22:03:17.000Z,280.62
2023-12-28T22:04:44.000Z,280.59
2023-12-28T22:06:50.000Z,280.59
2023-12-28T22:08:17.000Z,280.56
2023-12-28T22:10:23.000Z,280.54
2023-12-28T22:11:50.000Z,280.53
2023-12-28T22:13:56.000Z,280.57
2023-12-28T22:15:23.000Z,280.57
2023-12-28T22:17:29.000Z,280.59
2023-12-28T22:20:15.000Z,280.53
2023-12-28T22:21:41.000Z,280.47
2023-12-28T22:23:47.000Z,280.45
2023-12-28T22:25:14.000Z,280.49
2023-12-28T22:27:20.000Z,280.53
2023-12-28T22:28:47.000Z,280.57
2023-12-28T22:30:53.000Z,280.56
2023-12-28T22:32:20.000Z,280.56
2023-12-28T22:34:27.000Z,280.5
2023-12-28T22:35:53.000Z,280.51
2023-12-28T22:37:59.000Z,280.47
2023-12-28T22:39:26.000Z,280.42
2023-12-28T22:41:33.000Z,280.37
2023-12-28T22:42:59.000Z,280.34
2023-12-28T22:45:05.000Z,280.34
2023-12-28T22:46:32.000Z,280.38
2023-12-28T22:48:38.000Z,280.37